Meteorological Aerodrome Report (METAR)

METAR

Data at: 0940 UTC 13 Nov 2019

METAR for:NVSC (Sola/Vanua Lava Arpt, --, NV)
Text:NVSC 130600Z 12008KT 9999 BKN020 28/24 Q1010
Temperature: 28.0°C ( 82°F)
Dewpoint: 24.0°C ( 75°F) [RH = 79%]
Pressure (altimeter):29.82 inches Hg (1010.0 mb)
Winds:from the ESE (120 degrees) at 9 MPH (8 knots; 4.1 m/s)
Visibility:6 or more sm (10+ km)
Ceiling:2000 feet AGL
Clouds: broken clouds at 2000 feet AGL

METAR

Data at: 0940 UTC 13 Nov 2019

METAR for:NVSG (Longana Arpt, --, NV)
Text:NVSG 130900Z AUTO 14005KT //// // NCD 26/22 Q1013
Temperature: 26.0°C ( 79°F)
Dewpoint: 22.0°C ( 72°F) [RH = 79%]
Pressure (altimeter):29.91 inches Hg (1013.0 mb)
Winds:from the SE (140 degrees) at 6 MPH (5 knots; 2.6 m/s)
Ceiling:at least 12,000 feet AGL
Clouds:sky clear below 12,000 feet AGL

METAR

Data at: 0940 UTC 13 Nov 2019

METAR for:NVSS (Santo/Pekoa Intl, --, NV)
Text:NVSS 130900Z 13007KT 9999 SCT020 OVC040 26/22 Q1012
Temperature: 26.0°C ( 79°F)
Dewpoint: 22.0°C ( 72°F) [RH = 79%]
Pressure (altimeter):29.88 inches Hg (1012.0 mb)
Winds:from the SE (130 degrees) at 8 MPH (7 knots; 3.6 m/s)
Visibility:6 or more sm (10+ km)
Ceiling:4000 feet AGL
Clouds: scattered clouds at 2000 feet AGL, overcast cloud deck at 4000 feet AGL

METAR

Data at: 0940 UTC 13 Nov 2019

METAR for:NVSL (Malekula/Lamap, --, NV)
Text:NVSL 130900Z AUTO 11010KT //// // NCD 29/22 Q1010
Temperature: 29.0°C ( 84°F)
Dewpoint: 22.0°C ( 72°F) [RH = 66%]
Pressure (altimeter):29.82 inches Hg (1010.0 mb)
Winds:from the ESE (110 degrees) at 12 MPH (10 knots; 5.1 m/s)
Ceiling:at least 12,000 feet AGL
Clouds:sky clear below 12,000 feet AGL

METAR

Data at: 0940 UTC 13 Nov 2019

METAR for:NVSP (Norsup Arpt, --, NV)
Text:NVSP 130400Z AUTO 11008KT //// // NCD 28/22 Q1009
Temperature: 28.0°C ( 82°F)
Dewpoint: 22.0°C ( 72°F) [RH = 70%]
Pressure (altimeter):29.79 inches Hg (1009.0 mb)
Winds:from the ESE (110 degrees) at 9 MPH (8 knots; 4.1 m/s)
Ceiling:at least 12,000 feet AGL
Clouds:sky clear below 12,000 feet AGL

METAR

Data at: 0940 UTC 13 Nov 2019

METAR for:NVVV (Efate/Bauerfield Int, --, NV)
Text:NVVV 130900Z 04002KT 9999 FEW025 21/18 Q1014
Temperature: 21.0°C ( 70°F)
Dewpoint: 18.0°C ( 64°F) [RH = 83%]
Pressure (altimeter):29.94 inches Hg (1014.0 mb)
Winds:from the NE (40 degrees) at 2 MPH (2 knots; 1.0 m/s)
Visibility:6 or more sm (10+ km)
Ceiling:at least 12,000 feet AGL
Clouds: few clouds at 2500 feet AGL

METAR

Data at: 0940 UTC 13 Nov 2019

METAR for:NVVW (Tanna Arpt, --, NV)
Text:NVVW 130900Z 15006KT 9999 FEW025 23/18 Q1013
Temperature: 23.0°C ( 73°F)
Dewpoint: 18.0°C ( 64°F) [RH = 73%]
Pressure (altimeter):29.91 inches Hg (1013.0 mb)
Winds:from the SSE (150 degrees) at 7 MPH (6 knots; 3.1 m/s)
Visibility:6 or more sm (10+ km)
Ceiling:at least 12,000 feet AGL
Clouds: few clouds at 2500 feet AGL

METAR

Data at: 0940 UTC 13 Nov 2019

METAR for:NVVA (Aneityum/Mystery Isl, --, NV)
Text:NVVA 130900Z 00000KT 9999 FEW020 20/18 Q1015
Temperature: 20.0°C ( 68°F)
Dewpoint: 18.0°C ( 64°F) [RH = 88%]
Pressure (altimeter):29.97 inches Hg (1015.0 mb)
Winds:calm
Visibility:6 or more sm (10+ km)
Ceiling:at least 12,000 feet AGL
Clouds: few clouds at 2000 feet AGL

METAR

Data at: 0940 UTC 13 Nov 2019

NVVV 130900Z 04002KT 9999 FEW025 21/18 Q1014
NVSC 130600Z 12008KT 9999 BKN020 28/24 Q1010
NVSG 130900Z AUTO 14005KT //// // NCD 26/22 Q1013
NVSS 130900Z 13007KT 9999 SCT020 OVC040 26/22 Q1012
NVSL 130900Z AUTO 11010KT //// // NCD 29/22 Q1010
NVSP 130400Z AUTO 11008KT //// // NCD 28/22 Q1009
NVVW 130900Z 15006KT 9999 FEW025 23/18 Q1013
NVVA 130900Z 00000KT 9999 FEW020 20/18 Q1015